createdAt,value
2023-03-08T00:01:26.357Z,99312.84
2023-03-08T00:03:56.344Z,99300.75
2023-03-08T00:06:26.612Z,99310.31
2023-03-08T00:08:57.780Z,99314.66
2023-03-08T00:11:28.338Z,99304.34
2023-03-08T00:13:56.700Z,99306.06
2023-03-08T00:16:25.659Z,99310.41
2023-03-08T00:18:54.326Z,99302.63
2023-03-08T00:21:23.440Z,99311.34
2023-03-08T00:23:54.746Z,99306.13
2023-03-08T00:26:23.396Z,99311.34
2023-03-08T00:28:53.355Z,99316.53
2023-03-08T00:31:22.180Z,99301.78
2023-03-08T00:33:55.194Z,99299.19
2023-03-08T00:36:24.032Z,99300.09
2023-03-08T00:38:52.545Z,99303.63
2023-03-08T00:41:21.407Z,99294.16
2023-03-08T00:43:49.831Z,99287.34
2023-03-08T00:46:19.507Z,99292.63
2023-03-08T00:48:48.162Z,99290.22
2023-03-08T00:51:19.867Z,99288.59
2023-03-08T00:53:48.727Z,99284.34
2023-03-08T00:56:17.318Z,99282.72
2023-03-08T00:58:46.540Z,99281.03
2023-03-08T01:01:18.070Z,99283.72
2023-03-08T01:03:50.185Z,99281.16
2023-03-08T01:06:18.808Z,99274.25
2023-03-08T01:08:47.709Z,99284.66
2023-03-08T01:11:21.700Z,99270.75
2023-03-08T01:13:51.491Z,99282.88
2023-03-08T01:16:22.260Z,99275.91
2023-03-08T01:18:52.652Z,99279.28
2023-03-08T01:21:22.379Z,99281.03
2023-03-08T01:23:51.586Z,99269.66
2023-03-08T01:26:22.376Z,99270.53
2023-03-08T01:28:51.371Z,99270.53
2023-03-08T01:31:21.906Z,99260.94
2023-03-08T01:33:52.103Z,99261.75
2023-03-08T01:36:23.854Z,99244.44
2023-03-08T01:38:52.677Z,99237.56
2023-03-08T01:41:24.005Z,99247.19
2023-03-08T01:43:53.586Z,99235.97
2023-03-08T01:46:28.630Z,99243.88
2023-03-08T01:49:24.185Z,99235.28
2023-03-08T01:51:57.895Z,99242.28
2023-03-08T01:54:32.071Z,99234.59
2023-03-08T01:57:04.956Z,99239.88
2023-03-08T01:59:35.742Z,99240.03
2023-03-08T02:02:04.720Z,99234.94
2023-03-08T02:04:36.865Z,99232.47
2023-03-08T02:07:09.012Z,99231.88
2023-03-08T02:09:37.590Z,99220.66
2023-03-08T02:12:12.099Z,99224.28
2023-03-08T02:14:42.172Z,99223.56
2023-03-08T02:17:12.022Z,99212.44
2023-03-08T02:19:48.462Z,99219.53
2023-03-08T02:22:18.187Z,99209.31
2023-03-08T02:24:49.125Z,99212.00
2023-03-08T02:27:22.731Z,99205.19
2023-03-08T02:29:51.447Z,99206.13
2023-03-08T02:32:20.113Z,99198.34
2023-03-08T02:34:48.737Z,99200.94
2023-03-08T02:37:17.264Z,99192.31
2023-03-08T02:39:49.434Z,99187.09
2023-03-08T02:42:17.732Z,99186.19
2023-03-08T02:44:45.943Z,99184.41
2023-03-08T02:47:14.494Z,99188.69
2023-03-08T02:49:43.039Z,99191.22
2023-03-08T02:52:11.934Z,99189.44
2023-03-08T02:54:40.450Z,99180.72
2023-03-08T02:57:10.343Z,99178.03
2023-03-08T02:59:40.049Z,99164.91
2023-03-08T03:02:08.895Z,99170.03
2023-03-08T03:04:37.262Z,99165.63
2023-03-08T03:07:08.022Z,99159.44
2023-03-08T03:09:37.619Z,99152.44
2023-03-08T03:12:06.431Z,99153.25
2023-03-08T03:14:40.090Z,99148.88
2023-03-08T03:17:08.492Z,99149.69
2023-03-08T03:19:38.558Z,99138.34
2023-03-08T03:22:07.225Z,99137.44
2023-03-08T03:24:37.527Z,99138.25
2023-03-08T03:27:07.656Z,99133.91
2023-03-08T03:29:40.050Z,99132.16
2023-03-08T03:32:14.280Z,99134.75
2023-03-08T03:34:42.976Z,99131.34
2023-03-08T03:37:11.932Z,99134.84
2023-03-08T03:39:42.725Z,99136.63
2023-03-08T03:42:15.117Z,99131.50
2023-03-08T03:44:51.741Z,99132.44
2023-03-08T03:47:22.749Z,99129.00
2023-03-08T03:49:56.162Z,99129.13
2023-03-08T03:52:25.441Z,99142.25
2023-03-08T03:54:59.854Z,99141.59
2023-03-08T03:57:29.077Z,99140.81
2023-03-08T03:59:59.334Z,99141.75
2023-03-08T04:02:29.156Z,99131.34
2023-03-08T04:05:01.049Z,99124.41
2023-03-08T04:07:33.919Z,99121.78
2023-03-08T04:10:03.176Z,99115.69
2023-03-08T04:12:33.138Z,99113.09
2023-03-08T04:15:02.754Z,99120.88
2023-03-08T04:17:33.369Z,99115.69
2023-03-08T04:20:02.053Z,99117.44
2023-03-08T04:22:34.494Z,99115.75
2023-03-08T04:25:10.603Z,99108.81
2023-03-08T04:27:46.141Z,99122.69
2023-03-08T04:30:16.266Z,99111.41
2023-03-08T04:32:45.331Z,99106.19
2023-03-08T04:35:14.833Z,99101.00
2023-03-08T04:37:47.079Z,99105.38
2023-03-08T04:40:18.004Z,99100.25
2023-03-08T04:42:55.678Z,99094.28
2023-03-08T04:45:31.824Z,99083.81
2023-03-08T04:48:04.018Z,99080.38
2023-03-08T04:50:34.168Z,99081.22
2023-03-08T04:53:03.492Z,99073.50
2023-03-08T04:55:31.773Z,99076.97
2023-03-08T04:58:00.974Z,99072.69
2023-03-08T05:00:32.939Z,99081.41
2023-03-08T05:03:01.346Z,99078.84
2023-03-08T05:05:30.146Z,99065.91
2023-03-08T05:08:04.061Z,99063.31
2023-03-08T05:10:33.573Z,99059.94
2023-03-08T05:13:01.836Z,99057.34
2023-03-08T05:15:31.801Z,99045.22
2023-03-08T05:18:00.367Z,99054.75
2023-03-08T05:20:29.117Z,99059.94
2023-03-08T05:22:59.526Z,99061.69
2023-03-08T05:25:41.949Z,99066.06
2023-03-08T05:28:15.683Z,99068.59
2023-03-08T05:30:46.504Z,99061.72
2023-03-08T05:33:16.052Z,99047.88
2023-03-08T05:35:45.020Z,99049.63
2023-03-08T05:38:13.476Z,99042.72
2023-03-08T05:40:42.475Z,99051.41
2023-03-08T05:43:12.616Z,99043.69
2023-03-08T05:45:41.355Z,99028.13
2023-03-08T05:48:11.269Z,99035.91
2023-03-08T05:50:40.467Z,99027.28
2023-03-08T05:53:09.275Z,99028.19
2023-03-08T05:55:38.289Z,99021.22
2023-03-08T05:58:07.225Z,99018.63
2023-03-08T06:00:36.069Z,99001.22
2023-03-08T06:03:04.617Z,99008.16
2023-03-08T06:05:37.899Z,98988.16
2023-03-08T06:08:06.769Z,98997.69
2023-03-08T06:10:35.523Z,98997.63
2023-03-08T06:13:04.504Z,98993.25
2023-03-08T06:15:33.070Z,98976.84
2023-03-08T06:18:02.068Z,98971.59
2023-03-08T06:20:31.580Z,98967.28
2023-03-08T06:23:01.331Z,98977.66
2023-03-08T06:25:29.523Z,98982.00
2023-03-08T06:27:57.687Z,98976.81
2023-03-08T06:30:35.345Z,98968.09
2023-03-08T06:33:05.734Z,98956.81
2023-03-08T06:35:34.595Z,98956.88
2023-03-08T06:38:06.024Z,98970.69
2023-03-08T06:40:35.710Z,98963.81
2023-03-08T06:43:04.444Z,98969.00
2023-03-08T06:45:34.768Z,98964.69
2023-03-08T06:48:03.575Z,98964.69
2023-03-08T06:50:31.953Z,98960.38
2023-03-08T06:53:00.468Z,98946.47
2023-03-08T06:55:50.626Z,98951.66
2023-03-08T06:58:19.138Z,98940.44
2023-03-08T07:00:47.633Z,98946.47
2023-03-08T07:03:16.186Z,98933.41
2023-03-08T07:05:44.674Z,98922.16
2023-03-08T07:08:13.245Z,98925.53
2023-03-08T07:10:41.477Z,98941.09
2023-03-08T07:13:11.110Z,98929.75
2023-03-08T07:15:41.448Z,98927.97
2023-03-08T07:18:09.981Z,98924.47
2023-03-08T07:20:38.506Z,98928.84
2023-03-08T07:23:07.059Z,98919.38
2023-03-08T07:25:35.285Z,98922.94
2023-03-08T07:28:03.785Z,98922.34
2023-03-08T07:30:33.494Z,98906.38
2023-03-08T07:33:02.068Z,98903.50
2023-03-08T07:35:30.814Z,98899.78
2023-03-08T07:37:59.377Z,98896.00
2023-03-08T07:40:27.997Z,98899.03
2023-03-08T07:42:57.553Z,98887.28
2023-03-08T07:45:33.181Z,98887.53
2023-03-08T07:48:01.918Z,98887.69
2023-03-08T07:50:30.686Z,98889.59
2023-03-08T07:53:01.051Z,98886.28
2023-03-08T07:55:29.708Z,98880.38
2023-03-08T07:57:58.230Z,98878.72
2023-03-08T08:00:27.524Z,98875.41
2023-03-08T08:02:57.541Z,98865.31
2023-03-08T08:05:26.324Z,98860.41
2023-03-08T08:07:54.869Z,98862.31
2023-03-08T08:10:23.522Z,98853.00
2023-03-08T08:12:51.707Z,98849.72
2023-03-08T08:15:20.889Z,98855.09
2023-03-08T08:17:49.455Z,98827.59
2023-03-08T08:20:19.592Z,98835.50
2023-03-08T08:22:47.804Z,98830.47
2023-03-08T08:25:16.370Z,98820.19
2023-03-08T08:27:44.862Z,98804.69
2023-03-08T08:30:15.488Z,98803.84
2023-03-08T08:32:43.832Z,98797.91
2023-03-08T08:35:12.537Z,98785.84
2023-03-08T08:37:42.272Z,98773.78
2023-03-08T08:40:12.969Z,98779.03
2023-03-08T08:42:41.666Z,98773.00
2023-03-08T08:45:11.596Z,98760.06
2023-03-08T08:47:39.899Z,98759.22
2023-03-08T08:50:08.919Z,98763.44
2023-03-08T08:52:37.495Z,98737.47
2023-03-08T08:55:08.049Z,98730.47
2023-03-08T08:57:36.862Z,98732.13
2023-03-08T09:00:08.166Z,98731.16
2023-03-08T09:02:37.016Z,98731.09
2023-03-08T09:05:05.815Z,98716.38
2023-03-08T09:07:34.394Z,98715.50
2023-03-08T09:10:02.928Z,98721.63
2023-03-08T09:12:32.536Z,98705.19
2023-03-08T09:15:00.838Z,98707.78
2023-03-08T09:17:29.469Z,98713.09
2023-03-08T09:19:57.660Z,98713.19
2023-03-08T09:22:26.521Z,98708.97
2023-03-08T09:24:55.031Z,98697.81
2023-03-08T09:27:23.232Z,98704.66
2023-03-08T09:29:52.964Z,98696.03
2023-03-08T09:32:21.632Z,98689.91
2023-03-08T09:34:50.200Z,98687.31
2023-03-08T09:37:18.827Z,98690.72
2023-03-08T09:39:48.079Z,98680.44
2023-03-08T09:42:24.097Z,98666.59
2023-03-08T09:45:18.182Z,98673.50
2023-03-08T09:47:52.298Z,98664.00
2023-03-08T09:50:38.835Z,98671.72
2023-03-08T09:53:20.241Z,98670.78
2023-03-08T09:55:52.506Z,98656.91
2023-03-08T09:58:36.334Z,98669.84
2023-03-08T10:01:22.610Z,98645.66
2023-03-08T10:04:35.224Z,98637.84
2023-03-08T10:07:22.373Z,98628.28
2023-03-08T10:10:06.894Z,98620.38
2023-03-08T10:12:53.116Z,98616.84
2023-03-08T10:15:23.966Z,98615.84
2023-03-08T10:17:58.498Z,98601.09
2023-03-08T10:20:29.905Z,98612.25
2023-03-08T10:23:01.013Z,98602.66
2023-03-08T10:25:34.058Z,98599.09
2023-03-08T10:28:05.370Z,98605.91
2023-03-08T10:30:38.775Z,98604.06
2023-03-08T10:33:12.768Z,98604.81
2023-03-08T10:35:57.498Z,98604.81
2023-03-08T10:38:30.258Z,98597.78
2023-03-08T10:41:07.347Z,98585.59
2023-03-08T10:43:42.458Z,98587.19
2023-03-08T10:46:14.987Z,98575.88
2023-03-08T10:48:44.659Z,98571.47
2023-03-08T10:51:19.503Z,98573.97
2023-03-08T10:53:55.832Z,98565.16
2023-03-08T10:56:28.294Z,98564.13
2023-03-08T10:58:58.309Z,98560.59
2023-03-08T11:01:29.228Z,98551.81
2023-03-08T11:04:03.802Z,98543.91
2023-03-08T11:06:32.789Z,98540.41
2023-03-08T11:09:03.633Z,98535.06
2023-03-08T11:11:42.500Z,98539.28
2023-03-08T11:14:12.711Z,98523.53
2023-03-08T11:16:52.055Z,98532.03
2023-03-08T11:19:40.053Z,98527.53
2023-03-08T11:22:24.561Z,98520.44
2023-03-08T11:25:21.821Z,98528.03
2023-03-08T11:28:13.932Z,98523.56
2023-03-08T11:30:56.723Z,98530.28
2023-03-08T11:33:55.063Z,98511.97
2023-03-08T11:36:31.315Z,98512.56
2023-03-08T11:39:11.790Z,98495.03
2023-03-08T11:41:49.376Z,98497.38
2023-03-08T11:44:36.350Z,98486.78
2023-03-08T11:47:44.992Z,98484.97
2023-03-08T11:50:22.801Z,98483.06
2023-03-08T11:53:18.034Z,98472.47
2023-03-08T11:56:03.222Z,98489.69
2023-03-08T11:58:40.104Z,98489.53
2023-03-08T12:01:16.918Z,98493.63
2023-03-08T12:03:48.486Z,98494.28
2023-03-08T12:06:29.139Z,98493.25
2023-03-08T12:09:07.888Z,98493.94
2023-03-08T12:11:42.795Z,98495.47
2023-03-08T12:14:18.080Z,98484.91
2023-03-08T12:16:52.408Z,98483.00
2023-03-08T12:19:34.064Z,98485.47
2023-03-08T12:22:16.827Z,98486.09
2023-03-08T12:24:53.777Z,98478.91
2023-03-08T12:27:29.560Z,98481.22
2023-03-08T12:30:05.460Z,98470.59
2023-03-08T12:32:38.256Z,98468.69
2023-03-08T12:35:24.951Z,98469.28
2023-03-08T12:37:58.190Z,98463.84
2023-03-08T12:40:40.752Z,98463.59
2023-03-08T12:43:13.704Z,98468.44
2023-03-08T12:45:45.109Z,98454.38
2023-03-08T12:48:25.186Z,98462.84
2023-03-08T12:51:03.552Z,98461.69
2023-03-08T12:53:38.256Z,98444.09
2023-03-08T12:56:20.995Z,98443.03
2023-03-08T12:58:53.309Z,98437.56
2023-03-08T13:01:36.224Z,98449.28
2023-03-08T13:04:06.881Z,98441.03
2023-03-08T13:07:25.738Z,98448.34
2023-03-08T13:10:05.671Z,98440.09
2023-03-08T13:12:51.940Z,98433.66
2023-03-08T13:15:25.529Z,98436.75
2023-03-08T13:18:06.102Z,98441.72
2023-03-08T13:21:14.354Z,98433.53
2023-03-08T13:23:50.128Z,98422.69
2023-03-08T13:26:50.456Z,98431.84
2023-03-08T13:29:22.250Z,98429.75
2023-03-08T13:31:51.467Z,98437.28
2023-03-08T13:34:28.907Z,98437.94
2023-03-08T13:36:57.680Z,98437.66
2023-03-08T13:39:30.057Z,98435.38
2023-03-08T13:42:09.576Z,98445.34
2023-03-08T13:44:39.698Z,98435.97
2023-03-08T13:47:23.621Z,98448.97
2023-03-08T13:49:54.638Z,98444.69
2023-03-08T13:52:26.505Z,98438.88
2023-03-08T13:54:57.311Z,98432.28
2023-03-08T13:57:28.630Z,98423.13
2023-03-08T14:00:01.420Z,98417.50
2023-03-08T14:02:34.944Z,98407.53
2023-03-08T14:05:03.956Z,98402.78
2023-03-08T14:07:33.027Z,98409.47
2023-03-08T14:10:01.648Z,98413.50
2023-03-08T14:12:32.786Z,98417.50
2023-03-08T14:15:06.170Z,98426.69
2023-03-08T14:17:37.118Z,98408.00
2023-03-08T14:20:20.206Z,98400.72
2023-03-08T14:22:50.533Z,98423.97
2023-03-08T14:25:31.045Z,98415.09
2023-03-08T14:27:59.867Z,98420.16
2023-03-08T14:30:32.345Z,98411.41
2023-03-08T14:33:06.161Z,98415.69
2023-03-08T14:35:38.372Z,98394.78
2023-03-08T14:38:15.443Z,98399.22
2023-03-08T14:40:50.463Z,98396.72
2023-03-08T14:43:21.664Z,98399.22
2023-03-08T14:45:57.529Z,98395.72
2023-03-08T14:48:29.997Z,98400.00
2023-03-08T14:51:01.687Z,98408.44
2023-03-08T14:53:34.417Z,98394.88
2023-03-08T14:56:06.706Z,98380.50
2023-03-08T14:58:39.170Z,98395.13
2023-03-08T15:01:08.875Z,98386.34
2023-03-08T15:03:37.114Z,98391.41
2023-03-08T15:06:13.623Z,98362.28
2023-03-08T15:08:42.370Z,98361.94
2023-03-08T15:11:10.666Z,98349.44
2023-03-08T15:13:38.947Z,98344.53
2023-03-08T15:16:14.205Z,98347.81
2023-03-08T15:18:43.154Z,98354.75
2023-03-08T15:21:15.701Z,98354.63
2023-03-08T15:23:44.485Z,98349.34
2023-03-08T15:26:20.911Z,98353.63
2023-03-08T15:28:49.635Z,98362.25
2023-03-08T15:31:19.262Z,98356.81
2023-03-08T15:33:47.842Z,98342.81
2023-03-08T15:36:18.516Z,98333.00
2023-03-08T15:38:47.434Z,98327.56
2023-03-08T15:41:17.822Z,98325.59
2023-03-08T15:43:46.947Z,98316.66
2023-03-08T15:46:16.089Z,98326.84
2023-03-08T15:48:46.030Z,98324.91
2023-03-08T15:51:19.621Z,98335.38
2023-03-08T15:53:48.598Z,98335.47
2023-03-08T15:56:17.686Z,98346.78
2023-03-08T15:58:46.099Z,98343.25
2023-03-08T16:01:14.592Z,98339.69
2023-03-08T16:03:43.145Z,98329.97
2023-03-08T16:06:14.998Z,98337.66
2023-03-08T16:08:43.575Z,98316.69
2023-03-08T16:11:14.011Z,98323.78
2023-03-08T16:13:43.007Z,98325.66
2023-03-08T16:16:15.551Z,98334.44
2023-03-08T16:18:47.868Z,98331.91
2023-03-08T16:21:18.027Z,98331.25
2023-03-08T16:23:46.641Z,98338.63
2023-03-08T16:26:17.812Z,98352.91
2023-03-08T16:28:47.837Z,98353.09
2023-03-08T16:31:17.777Z,98355.03
2023-03-08T16:33:46.308Z,98349.88
2023-03-08T16:36:15.190Z,98339.41
2023-03-08T16:38:44.850Z,98348.03
2023-03-08T16:41:14.295Z,98333.09
2023-03-08T16:43:47.327Z,98323.47
2023-03-08T16:46:18.288Z,98321.84
2023-03-08T16:48:49.221Z,98302.13
2023-03-08T16:51:19.829Z,98299.78
2023-03-08T16:53:50.345Z,98300.16
2023-03-08T16:56:20.365Z,98317.88
2023-03-08T16:58:48.773Z,98319.91
2023-03-08T17:01:19.461Z,98315.88
2023-03-08T17:03:48.210Z,98316.22
2023-03-08T17:06:19.762Z,98329.56
2023-03-08T17:08:50.205Z,98329.81
2023-03-08T17:11:21.539Z,98342.22
2023-03-08T17:13:51.212Z,98331.94
2023-03-08T17:16:20.375Z,98346.13
2023-03-08T17:18:49.860Z,98337.59
2023-03-08T17:21:19.053Z,98348.31
2023-03-08T17:23:49.813Z,98346.94
2023-03-08T17:26:20.091Z,98344.59
2023-03-08T17:28:50.406Z,98356.06
2023-03-08T17:31:21.729Z,98351.94
2023-03-08T17:33:50.656Z,98338.16
2023-03-08T17:36:19.740Z,98340.88
2023-03-08T17:38:49.360Z,98347.88
2023-03-08T17:41:18.159Z,98347.06
2023-03-08T17:43:46.704Z,98359.25
2023-03-08T17:46:17.865Z,98361.97
2023-03-08T17:48:46.832Z,98360.28
2023-03-08T17:51:18.599Z,98362.97
2023-03-08T17:53:49.156Z,98359.50
2023-03-08T17:56:20.006Z,98366.50
2023-03-08T17:58:49.193Z,98363.06
2023-03-08T18:01:20.161Z,98364.81
2023-03-08T18:03:49.057Z,98368.34
2023-03-08T18:06:23.536Z,98360.44
2023-03-08T18:08:53.498Z,98373.50
2023-03-08T18:11:22.388Z,98378.75
2023-03-08T18:13:51.351Z,98372.59
2023-03-08T18:16:21.036Z,98381.25
2023-03-08T18:18:50.210Z,98394.25
2023-03-08T18:21:19.153Z,98402.84
2023-03-08T18:23:48.319Z,98395.00
2023-03-08T18:26:18.792Z,98389.78
2023-03-08T18:28:47.572Z,98391.53
2023-03-08T18:31:18.245Z,98392.56
2023-03-08T18:33:47.005Z,98392.72
2023-03-08T18:36:15.248Z,98399.72
2023-03-08T18:38:44.350Z,98385.03
2023-03-08T18:41:15.084Z,98389.44
2023-03-08T18:43:45.154Z,98396.44
2023-03-08T18:46:15.183Z,98393.03
2023-03-08T18:48:46.315Z,98390.44
2023-03-08T18:51:16.571Z,98393.13
2023-03-08T18:53:45.355Z,98387.03
2023-03-08T18:56:13.959Z,98393.22
2023-03-08T18:58:43.975Z,98392.38
2023-03-08T19:01:15.187Z,98379.31
2023-03-08T19:03:45.442Z,98392.38
2023-03-08T19:06:15.355Z,98401.88
2023-03-08T19:08:45.035Z,98407.94
2023-03-08T19:11:15.873Z,98408.81
2023-03-08T19:13:45.856Z,98409.66
2023-03-08T19:16:20.524Z,98404.44
2023-03-08T19:18:49.577Z,98402.88
2023-03-08T19:21:19.738Z,98395.97
2023-03-08T19:23:48.788Z,98392.53
2023-03-08T19:26:38.246Z,98396.81
2023-03-08T19:29:14.412Z,98396.81
2023-03-08T19:31:44.842Z,98400.28
2023-03-08T19:34:14.272Z,98392.38
2023-03-08T19:36:44.079Z,98393.31
2023-03-08T19:39:16.829Z,98383.69
2023-03-08T19:41:48.433Z,98393.31
2023-03-08T19:44:18.768Z,98392.44
2023-03-08T19:46:47.545Z,98389.91
2023-03-08T19:49:18.353Z,98386.53
2023-03-08T19:51:48.952Z,98392.75
2023-03-08T19:54:17.895Z,98391.06
2023-03-08T19:56:46.455Z,98390.31
2023-03-08T19:59:15.146Z,98389.56
2023-03-08T20:01:45.175Z,98399.25
2023-03-08T20:04:14.242Z,98390.72
2023-03-08T20:06:46.507Z,98384.66
2023-03-08T20:09:21.264Z,98379.56
2023-03-08T20:11:52.993Z,98373.47
2023-03-08T20:14:21.850Z,98379.56
2023-03-08T20:16:52.001Z,98377.03
2023-03-08T20:19:20.518Z,98383.09
2023-03-08T20:21:49.067Z,98384.78
2023-03-08T20:24:18.797Z,98381.28
2023-03-08T20:26:47.215Z,98384.66
2023-03-08T20:29:15.847Z,98369.81
2023-03-08T20:31:45.134Z,98373.19
2023-03-08T20:34:14.882Z,98382.63
2023-03-08T20:36:43.458Z,98366.78
2023-03-08T20:39:12.123Z,98384.00
2023-03-08T20:41:40.625Z,98378.63
2023-03-08T20:44:11.878Z,98379.19
2023-03-08T20:46:40.427Z,98390.44
2023-03-08T20:49:11.084Z,98386.88
2023-03-08T20:51:40.802Z,98387.75
2023-03-08T20:54:09.917Z,98382.53
2023-03-08T20:56:38.446Z,98391.19
2023-03-08T20:59:06.654Z,98397.34
2023-03-08T21:01:35.021Z,98400.72
2023-03-08T21:04:03.358Z,98392.81
2023-03-08T21:06:33.079Z,98397.94
2023-03-08T21:09:02.816Z,98405.72
2023-03-08T21:11:31.485Z,98402.09
2023-03-08T21:13:59.975Z,98399.38
2023-03-08T21:16:30.416Z,98401.06
2023-03-08T21:19:01.358Z,98391.47
2023-03-08T21:21:34.071Z,98387.94
2023-03-08T21:24:06.607Z,98393.16
2023-03-08T21:26:35.647Z,98379.16
2023-03-08T21:29:06.181Z,98373.91
2023-03-08T21:31:36.351Z,98364.41
2023-03-08T21:34:06.559Z,98381.03
2023-03-08T21:36:36.151Z,98373.25
2023-03-08T21:39:07.791Z,98367.19
2023-03-08T21:41:38.967Z,98362.81
2023-03-08T21:44:12.271Z,98369.81
2023-03-08T21:46:41.802Z,98361.19
2023-03-08T21:49:17.660Z,98360.28
2023-03-08T21:51:46.414Z,98363.81
2023-03-08T21:54:16.736Z,98356.72
2023-03-08T21:56:45.154Z,98342.00
2023-03-08T21:59:14.206Z,98352.44
2023-03-08T22:01:45.553Z,98345.44
2023-03-08T22:04:14.506Z,98344.59
2023-03-08T22:06:43.175Z,98328.91
2023-03-08T22:09:11.868Z,98334.16
2023-03-08T22:11:41.654Z,98335.81
2023-03-08T22:14:09.949Z,98327.88
2023-03-08T22:16:40.886Z,98322.59
2023-03-08T22:19:10.790Z,98324.25
2023-03-08T22:21:39.298Z,98325.97
2023-03-08T22:24:08.060Z,98321.47
2023-03-08T22:26:36.293Z,98309.19
2023-03-08T22:29:05.885Z,98311.69
2023-03-08T22:31:34.529Z,98307.16
2023-03-08T22:34:02.762Z,98296.53
2023-03-08T22:36:31.294Z,98285.91
2023-03-08T22:38:59.595Z,98289.25
2023-03-08T22:41:29.336Z,98276.88
2023-03-08T22:43:57.863Z,98280.16
2023-03-08T22:46:28.913Z,98273.09
2023-03-08T22:48:59.257Z,98263.34
2023-03-08T22:51:28.622Z,98263.19
2023-03-08T22:53:59.034Z,98258.72
2023-03-08T22:56:30.543Z,98255.16
2023-03-08T22:58:59.289Z,98247.31
2023-03-08T23:01:30.910Z,98244.72
2023-03-08T23:04:01.357Z,98246.41
2023-03-08T23:06:31.782Z,98236.78
2023-03-08T23:09:04.426Z,98231.63
2023-03-08T23:11:33.930Z,98225.50
2023-03-08T23:14:03.010Z,98219.38
2023-03-08T23:16:33.378Z,98213.31
2023-03-08T23:19:02.458Z,98200.44
2023-03-08T23:21:33.485Z,98195.97
2023-03-08T23:24:02.187Z,98189.91
2023-03-08T23:26:32.500Z,98188.00
2023-03-08T23:29:03.295Z,98192.22
2023-03-08T23:31:35.765Z,98185.97
2023-03-08T23:34:05.798Z,98181.41
2023-03-08T23:36:35.188Z,98186.44
2023-03-08T23:39:04.198Z,98188.88
2023-03-08T23:41:33.654Z,98185.25
2023-03-08T23:44:03.859Z,98194.69
2023-03-08T23:46:33.839Z,98205.16
2023-03-08T23:49:02.812Z,98191.13
2023-03-08T23:51:34.044Z,98185.91
2023-03-08T23:54:03.540Z,98201.59
2023-03-08T23:56:37.834Z,98194.69
2023-03-08T23:59:10.598Z,98188.63
